createdAt,value
2018-09-29T00:02:10.928Z,99.19
2018-09-29T00:04:39.261Z,99.00
2018-09-29T00:07:08.679Z,97.78
2018-09-29T00:09:38.025Z,98.67
2018-09-29T00:12:07.373Z,99.50
2018-09-29T00:14:36.476Z,100.00
2018-09-29T00:17:04.817Z,100.00
2018-09-29T00:19:33.158Z,100.00
2018-09-29T00:22:01.952Z,100.00
2018-09-29T00:24:31.028Z,100.00
2018-09-29T00:27:00.839Z,100.00
2018-09-29T00:29:30.013Z,100.00
2018-09-29T00:31:59.089Z,100.00
2018-09-29T00:34:27.452Z,100.00
2018-09-29T00:36:55.831Z,100.00
2018-09-29T00:39:24.164Z,100.00
2018-09-29T00:41:52.480Z,100.00
2018-09-29T00:44:21.849Z,100.00
2018-09-29T00:46:51.246Z,100.00
2018-09-29T00:49:19.575Z,100.00
2018-09-29T00:51:47.941Z,100.00
2018-09-29T00:54:17.284Z,100.00
2018-09-29T00:56:46.497Z,100.00
2018-09-29T00:59:15.749Z,100.00
2018-09-29T01:01:44.097Z,100.00
2018-09-29T01:04:13.402Z,100.00
2018-09-29T01:06:42.665Z,100.00
2018-09-29T01:09:12.136Z,100.00
2018-09-29T01:11:41.393Z,100.00
2018-09-29T01:14:10.744Z,100.00
2018-09-29T01:16:40.097Z,100.00
2018-09-29T01:19:09.505Z,100.00
2018-09-29T01:21:39.845Z,100.00
2018-09-29T01:24:09.125Z,100.00
2018-09-29T01:26:38.386Z,100.00
2018-09-29T01:29:08.589Z,100.00
2018-09-29T01:31:37.925Z,100.00
2018-09-29T01:34:07.376Z,100.00
2018-09-29T01:36:37.870Z,100.00
2018-09-29T01:39:08.505Z,100.00
2018-09-29T01:41:39.041Z,100.00
2018-09-29T01:44:08.568Z,100.00
2018-09-29T01:46:39.075Z,100.00
2018-09-29T01:49:08.353Z,100.00
2018-09-29T01:51:39.028Z,100.00
2018-09-29T01:54:08.377Z,100.00
2018-09-29T01:56:38.953Z,100.00
2018-09-29T01:59:08.161Z,100.00
2018-09-29T02:01:38.694Z,100.00
2018-09-29T02:04:07.949Z,100.00
2018-09-29T02:06:38.225Z,100.00
2018-09-29T02:09:08.581Z,100.00
2018-09-29T02:11:37.636Z,100.00
2018-09-29T02:14:07.049Z,100.00
2018-09-29T02:16:37.413Z,100.00
2018-09-29T02:19:06.421Z,100.00
2018-09-29T02:21:36.465Z,100.00
2018-09-29T02:24:06.549Z,100.00
2018-09-29T02:26:35.905Z,100.00
2018-09-29T02:29:04.344Z,100.00
2018-09-29T02:31:33.674Z,100.00
2018-09-29T02:34:03.033Z,100.00
2018-09-29T02:36:31.361Z,100.00
2018-09-29T02:39:02.026Z,100.00
2018-09-29T02:41:30.426Z,100.00
2018-09-29T02:43:59.802Z,100.00
2018-09-29T02:46:28.167Z,100.00
2018-09-29T02:48:58.021Z,100.00
2018-09-29T02:51:26.410Z,100.00
2018-09-29T02:53:55.733Z,100.00
2018-09-29T02:56:24.089Z,100.00
2018-09-29T02:58:53.359Z,100.00
2018-09-29T03:01:22.726Z,100.00
2018-09-29T03:03:51.871Z,100.00
2018-09-29T03:06:21.077Z,100.00
2018-09-29T03:08:49.412Z,100.00
2018-09-29T03:11:17.758Z,100.00
2018-09-29T03:13:46.099Z,100.00
2018-09-29T03:16:14.519Z,100.00
2018-09-29T03:18:42.857Z,100.00
2018-09-29T03:21:11.198Z,100.00
2018-09-29T03:23:39.547Z,100.00
2018-09-29T03:26:08.651Z,100.00
2018-09-29T03:28:37.664Z,100.00
2018-09-29T03:31:07.222Z,100.00
2018-09-29T03:33:37.513Z,100.00
2018-09-29T03:36:07.424Z,100.00
2018-09-29T03:38:36.554Z,100.00
2018-09-29T03:41:04.925Z,100.00
2018-09-29T03:43:33.253Z,100.00
2018-09-29T03:46:01.585Z,100.00
2018-09-29T03:48:31.253Z,100.00
2018-09-29T03:51:00.621Z,100.00
2018-09-29T03:53:29.338Z,100.00
2018-09-29T03:55:58.147Z,100.00
2018-09-29T03:58:26.494Z,100.00
2018-09-29T04:00:55.721Z,100.00
2018-09-29T04:03:24.056Z,100.00
2018-09-29T04:05:52.389Z,100.00
2018-09-29T04:08:20.721Z,100.00
2018-09-29T04:10:49.942Z,100.00
2018-09-29T04:13:19.320Z,100.00
2018-09-29T04:15:47.697Z,100.00
2018-09-29T04:18:16.078Z,100.00
2018-09-29T04:20:45.357Z,100.00
2018-09-29T04:23:13.761Z,100.00
2018-09-29T04:25:42.960Z,100.00
2018-09-29T04:28:12.277Z,100.00
2018-09-29T04:30:41.644Z,100.00
2018-09-29T04:33:10.865Z,100.00
2018-09-29T04:35:40.090Z,100.00
2018-09-29T04:38:09.425Z,100.00
2018-09-29T04:40:39.762Z,100.00
2018-09-29T04:43:08.134Z,100.00
2018-09-29T04:45:38.212Z,100.00
2018-09-29T04:48:07.620Z,100.00
2018-09-29T04:50:37.433Z,100.00
2018-09-29T04:53:07.798Z,100.00
2018-09-29T04:55:37.203Z,100.00
2018-09-29T04:58:06.849Z,100.00
2018-09-29T05:00:36.346Z,100.00
2018-09-29T05:03:05.493Z,100.00
2018-09-29T05:05:33.821Z,100.00
2018-09-29T05:08:02.151Z,100.00
2018-09-29T05:10:31.249Z,100.00
2018-09-29T05:13:00.681Z,100.00
2018-09-29T05:15:30.197Z,100.00
2018-09-29T05:17:58.673Z,100.00
2018-09-29T05:20:27.001Z,100.00
2018-09-29T05:22:55.345Z,100.00
2018-09-29T05:25:23.704Z,100.00
2018-09-29T05:27:53.073Z,100.00
2018-09-29T05:30:21.417Z,100.00
2018-09-29T05:32:49.749Z,100.00
2018-09-29T05:35:18.085Z,100.00
2018-09-29T05:37:46.414Z,100.00
2018-09-29T05:40:14.758Z,100.00
2018-09-29T05:42:43.097Z,100.00
2018-09-29T05:45:11.439Z,100.00
2018-09-29T05:47:39.773Z,100.00
2018-09-29T05:50:08.281Z,100.00
2018-09-29T05:52:37.543Z,100.00
2018-09-29T05:55:05.894Z,100.00
2018-09-29T05:57:36.391Z,100.00
2018-09-29T06:00:05.421Z,100.00
2018-09-29T06:02:33.764Z,100.00
2018-09-29T06:05:02.353Z,100.00
2018-09-29T06:07:31.992Z,100.00
2018-09-29T06:10:01.324Z,100.00
2018-09-29T06:12:31.457Z,100.00
2018-09-29T06:15:01.230Z,100.00
2018-09-29T06:17:30.793Z,100.00
2018-09-29T06:20:01.161Z,100.00
2018-09-29T06:22:31.384Z,100.00
2018-09-29T06:25:02.029Z,100.00
2018-09-29T06:27:31.269Z,100.00
2018-09-29T06:30:00.254Z,100.00
2018-09-29T06:32:30.509Z,100.00
2018-09-29T06:34:59.914Z,100.00
2018-09-29T06:37:28.761Z,100.00
2018-09-29T06:39:57.097Z,100.00
2018-09-29T06:42:25.444Z,100.00
2018-09-29T06:44:53.901Z,100.00
2018-09-29T06:47:22.233Z,100.00
2018-09-29T06:49:50.583Z,100.00
2018-09-29T06:52:19.961Z,100.00
2018-09-29T06:54:49.254Z,100.00
2018-09-29T06:57:18.606Z,100.00
2018-09-29T06:59:47.891Z,99.70
2018-09-29T07:02:16.233Z,99.43
2018-09-29T07:04:45.376Z,99.58
2018-09-29T07:07:14.562Z,98.60
2018-09-29T07:09:42.898Z,97.96
2018-09-29T07:12:11.625Z,98.25
2018-09-29T07:14:40.989Z,97.41
2018-09-29T07:17:10.216Z,96.12
2018-09-29T07:19:38.546Z,96.57
2018-09-29T07:22:09.004Z,95.91
2018-09-29T07:24:38.853Z,95.48
2018-09-29T07:27:08.087Z,93.17
2018-09-29T07:29:37.982Z,92.05
2018-09-29T07:32:08.073Z,91.60
2018-09-29T07:34:38.689Z,92.68
2018-09-29T07:37:09.058Z,90.22
2018-09-29T07:39:38.388Z,89.61
2018-09-29T07:42:08.201Z,88.47
2018-09-29T07:44:39.051Z,87.94
2018-09-29T07:47:08.308Z,87.61
2018-09-29T07:49:38.698Z,87.52
2018-09-29T07:52:08.109Z,85.65
2018-09-29T07:54:37.427Z,87.58
2018-09-29T07:57:07.473Z,85.55
2018-09-29T07:59:35.877Z,85.04
2018-09-29T08:02:04.214Z,83.99
2018-09-29T08:04:32.830Z,84.96
2018-09-29T08:07:01.223Z,84.40
2018-09-29T08:09:30.644Z,84.02
2018-09-29T08:11:59.441Z,83.06
2018-09-29T08:14:29.392Z,82.85
2018-09-29T08:16:58.234Z,82.37
2018-09-29T08:19:26.573Z,81.11
2018-09-29T08:21:54.952Z,81.34
2018-09-29T08:24:24.251Z,80.12
2018-09-29T08:26:52.560Z,80.24
2018-09-29T08:29:20.905Z,77.96
2018-09-29T08:31:49.313Z,78.56
2018-09-29T08:34:17.696Z,79.55
2018-09-29T08:36:46.064Z,79.43
2018-09-29T08:39:14.530Z,77.33
2018-09-29T08:41:42.929Z,76.80
2018-09-29T08:44:11.241Z,75.28
2018-09-29T08:46:39.650Z,74.65
2018-09-29T08:49:07.964Z,74.30
2018-09-29T08:51:36.939Z,73.11
2018-09-29T08:54:06.280Z,73.31
2018-09-29T08:56:37.130Z,73.39
2018-09-29T08:59:06.769Z,72.67
2018-09-29T09:01:36.709Z,70.84
2018-09-29T09:04:06.167Z,70.40
2018-09-29T09:06:35.985Z,68.69
2018-09-29T09:09:06.521Z,68.25
2018-09-29T09:11:36.155Z,66.22
2018-09-29T09:14:05.403Z,66.90
2018-09-29T09:16:33.757Z,66.45
2018-09-29T09:19:03.154Z,67.05
2018-09-29T09:21:32.121Z,67.42
2018-09-29T09:24:01.068Z,66.96
2018-09-29T09:29:06.326Z,63.78
2018-09-29T09:31:35.384Z,62.91
2018-09-29T09:34:03.773Z,64.00
2018-09-29T09:36:32.989Z,64.13
2018-09-29T09:39:01.584Z,65.28
2018-09-29T09:41:30.716Z,62.59
2018-09-29T09:43:59.492Z,60.58
2018-09-29T09:46:27.845Z,61.92
2018-09-29T09:48:56.186Z,62.85
2018-09-29T09:51:25.609Z,60.22
2018-09-29T09:53:53.948Z,63.46
2018-09-29T09:56:22.337Z,59.82
2018-09-29T09:58:50.677Z,58.11
2018-09-29T10:01:41.414Z,60.37
2018-09-29T10:04:10.731Z,56.69
2018-09-29T10:06:39.070Z,56.68
2018-09-29T10:09:09.825Z,55.45
2018-09-29T10:11:38.200Z,57.21
2018-09-29T10:14:07.566Z,56.32
2018-09-29T10:16:37.778Z,57.31
2018-09-29T10:19:07.777Z,55.71
2018-09-29T10:21:37.520Z,57.91
2018-09-29T10:24:05.943Z,51.59
2018-09-29T10:26:35.106Z,50.87
2018-09-29T10:29:03.458Z,51.72
2018-09-29T10:31:31.793Z,55.91
2018-09-29T10:34:01.109Z,53.65
2018-09-29T10:36:30.889Z,52.98
2018-09-29T10:39:00.362Z,54.75
2018-09-29T10:41:29.422Z,55.81
2018-09-29T10:43:59.526Z,50.11
2018-09-29T10:46:28.486Z,49.35
2018-09-29T10:48:56.838Z,50.53
2018-09-29T10:51:25.204Z,49.78
2018-09-29T10:53:53.669Z,50.62
2018-09-29T10:56:22.080Z,51.36
2018-09-29T10:58:50.416Z,50.90
2018-09-29T11:01:18.756Z,54.16
2018-09-29T11:03:47.253Z,49.12
2018-09-29T11:06:15.578Z,48.74
2018-09-29T11:08:43.965Z,48.72
2018-09-29T11:11:12.292Z,49.12
2018-09-29T11:13:41.477Z,49.79
2018-09-29T11:16:09.810Z,48.81
2018-09-29T11:18:38.253Z,51.50
2018-09-29T11:21:07.937Z,47.96
2018-09-29T11:23:37.849Z,48.41
2018-09-29T11:26:07.341Z,48.74
2018-09-29T11:28:36.772Z,48.49
2018-09-29T11:31:07.193Z,46.51
2018-09-29T11:33:36.532Z,46.41
2018-09-29T11:36:05.329Z,45.52
2018-09-29T11:38:33.989Z,46.69
2018-09-29T11:41:02.321Z,46.61
2018-09-29T11:43:30.689Z,46.11
2018-09-29T11:45:59.403Z,48.16
2018-09-29T11:48:28.873Z,49.45
2018-09-29T11:50:57.218Z,46.61
2018-09-29T11:53:25.554Z,45.19
2018-09-29T11:55:54.761Z,46.47
2018-09-29T11:58:23.167Z,44.41
2018-09-29T12:00:51.569Z,45.41
2018-09-29T12:03:20.917Z,44.34
2018-09-29T12:05:49.309Z,44.28
2018-09-29T12:08:17.902Z,45.11
2018-09-29T12:10:47.162Z,46.20
2018-09-29T12:13:15.513Z,46.68
2018-09-29T12:15:43.846Z,48.92
2018-09-29T12:18:12.184Z,45.46
2018-09-29T12:20:40.532Z,43.78
2018-09-29T12:23:08.885Z,43.66
2018-09-29T12:25:37.841Z,42.55
2018-09-29T12:28:07.329Z,45.97
2018-09-29T12:30:37.571Z,46.57
2018-09-29T12:33:06.393Z,47.25
2018-09-29T12:35:35.417Z,45.05
2018-09-29T12:38:03.798Z,44.06
2018-09-29T12:40:32.135Z,45.43
2018-09-29T12:43:01.204Z,44.71
2018-09-29T12:45:30.257Z,46.44
2018-09-29T12:47:59.497Z,46.72
2018-09-29T12:50:28.928Z,47.22
2018-09-29T12:52:58.561Z,46.82
2018-09-29T12:55:27.953Z,48.53
2018-09-29T12:57:57.169Z,48.36
2018-09-29T13:00:25.572Z,48.23
2018-09-29T13:02:54.967Z,47.49
2018-09-29T13:05:23.345Z,46.98
2018-09-29T13:07:51.720Z,45.43
2018-09-29T13:10:20.062Z,47.12
2018-09-29T13:12:48.448Z,46.27
2018-09-29T13:15:16.841Z,47.79
2018-09-29T13:17:45.403Z,45.45
2018-09-29T13:20:13.728Z,46.39
2018-09-29T13:22:43.096Z,45.56
2018-09-29T13:25:11.473Z,46.17
2018-09-29T13:27:41.141Z,50.90
2018-09-29T13:30:09.474Z,51.24
2018-09-29T13:32:39.442Z,47.25
2018-09-29T13:35:08.544Z,49.43
2018-09-29T13:37:39.297Z,48.79
2018-09-29T13:40:09.174Z,49.67
2018-09-29T13:42:38.389Z,49.87
2018-09-29T13:45:08.050Z,51.29
2018-09-29T13:47:38.242Z,51.85
2018-09-29T13:50:08.265Z,52.00
2018-09-29T13:52:37.614Z,54.16
2018-09-29T13:55:05.985Z,52.03
2018-09-29T13:57:36.222Z,51.51
2018-09-29T14:00:05.313Z,54.44
2018-09-29T14:02:33.713Z,55.95
2018-09-29T14:05:02.068Z,56.02
2018-09-29T14:07:31.281Z,58.09
2018-09-29T14:10:00.889Z,54.84
2018-09-29T14:12:29.232Z,55.86
2018-09-29T14:14:58.577Z,58.73
2018-09-29T14:17:28.461Z,56.55
2018-09-29T14:19:57.680Z,54.62
2018-09-29T14:22:26.094Z,58.76
2018-09-29T14:24:55.408Z,53.37
2018-09-29T14:27:23.789Z,54.25
2018-09-29T14:29:53.152Z,55.56
2018-09-29T14:32:21.766Z,54.94
2018-09-29T14:34:50.105Z,54.81
2018-09-29T14:37:19.469Z,55.26
2018-09-29T14:39:47.834Z,56.44
2018-09-29T14:42:16.197Z,52.90
2018-09-29T14:44:45.587Z,52.05
2018-09-29T14:47:14.920Z,52.24
2018-09-29T14:49:43.298Z,51.64
2018-09-29T14:52:11.649Z,51.49
2018-09-29T14:54:40.058Z,53.55
2018-09-29T14:57:08.395Z,50.06
2018-09-29T14:59:39.339Z,53.58
2018-09-29T15:02:09.022Z,50.79
2018-09-29T15:04:41.384Z,49.99
2018-09-29T15:07:09.716Z,50.03
2018-09-29T15:09:38.054Z,49.26
2018-09-29T15:12:06.990Z,53.90
2018-09-29T15:14:36.076Z,54.27
2018-09-29T15:17:06.225Z,52.98
2018-09-29T15:19:35.758Z,50.47
2018-09-29T15:22:05.026Z,54.14
2018-09-29T15:24:33.388Z,54.74
2018-09-29T15:27:02.648Z,51.28
2018-09-29T15:29:32.849Z,52.46
2018-09-29T15:32:02.617Z,51.26
2018-09-29T15:34:31.786Z,53.48
2018-09-29T15:37:01.997Z,52.64
2018-09-29T15:39:31.365Z,54.54
2018-09-29T15:42:00.875Z,50.79
2018-09-29T15:44:30.114Z,53.49
2018-09-29T15:46:59.489Z,52.10
2018-09-29T15:49:28.758Z,54.04
2018-09-29T15:51:57.199Z,51.96
2018-09-29T15:54:25.680Z,52.17
2018-09-29T15:56:54.149Z,53.34
2018-09-29T15:59:22.648Z,53.48
2018-09-29T16:01:52.033Z,54.14
2018-09-29T16:04:20.382Z,54.40
2018-09-29T16:06:48.871Z,54.50
2018-09-29T16:09:17.225Z,55.30
2018-09-29T16:11:45.544Z,56.50
2018-09-29T16:14:14.361Z,56.28
2018-09-29T16:16:43.693Z,56.88
2018-09-29T16:19:12.906Z,55.80
2018-09-29T16:21:41.261Z,56.10
2018-09-29T16:24:09.598Z,57.76
2018-09-29T16:26:38.773Z,57.56
2018-09-29T16:29:08.145Z,58.12
2018-09-29T16:31:37.877Z,59.42
2018-09-29T16:34:08.021Z,60.06
2018-09-29T16:36:36.805Z,60.40
2018-09-29T16:39:09.182Z,61.82
2018-09-29T16:41:38.426Z,62.71
2018-09-29T16:44:07.459Z,62.79
2018-09-29T16:46:37.701Z,63.79
2018-09-29T16:49:07.537Z,66.19
2018-09-29T16:51:35.913Z,65.01
2018-09-29T16:54:06.114Z,65.25
2018-09-29T16:56:36.333Z,65.79
2018-09-29T16:59:07.211Z,66.26
2018-09-29T17:01:37.233Z,67.73
2018-09-29T17:04:07.916Z,68.36
2018-09-29T17:06:37.154Z,67.26
2018-09-29T17:09:09.369Z,71.28
2018-09-29T17:11:39.438Z,69.05
2018-09-29T17:14:08.390Z,72.19
2018-09-29T17:16:38.770Z,72.09
2018-09-29T17:19:08.281Z,72.00
2018-09-29T17:21:37.693Z,70.64
2018-09-29T17:24:06.077Z,70.91
2018-09-29T17:26:34.449Z,70.04
2018-09-29T17:29:02.827Z,70.58
2018-09-29T17:31:32.298Z,73.13
2018-09-29T17:34:01.312Z,75.37
2018-09-29T17:36:30.702Z,73.05
2018-09-29T17:38:59.560Z,72.87
2018-09-29T17:41:28.662Z,75.73
2018-09-29T17:43:56.993Z,75.36
2018-09-29T17:46:25.378Z,78.27
2018-09-29T17:48:53.769Z,76.93
2018-09-29T17:51:22.210Z,79.40
2018-09-29T17:53:50.553Z,81.21
2018-09-29T17:56:18.892Z,83.30
2018-09-29T17:58:47.350Z,82.88
2018-09-29T18:01:15.689Z,84.83
2018-09-29T18:03:44.041Z,86.09
2018-09-29T18:06:12.413Z,85.66
2018-09-29T18:08:40.809Z,86.80
2018-09-29T18:11:09.182Z,88.29
2018-09-29T18:13:39.956Z,90.30
2018-09-29T18:16:08.273Z,89.96
2018-09-29T18:18:38.109Z,90.34
2018-09-29T18:21:07.798Z,91.58
2018-09-29T18:23:36.903Z,91.77
2018-09-29T18:26:07.299Z,92.63
2018-09-29T18:28:36.880Z,94.29
2018-09-29T18:31:06.236Z,94.15
2018-09-29T18:33:35.626Z,94.66
2018-09-29T18:36:03.986Z,95.15
2018-09-29T18:38:32.362Z,96.95
2018-09-29T18:41:02.707Z,96.91
2018-09-29T18:43:32.765Z,98.05
2018-09-29T18:46:02.668Z,99.01
2018-09-29T18:48:32.571Z,99.52
2018-09-29T18:51:01.761Z,99.69
2018-09-29T18:56:21.557Z,100.00
2018-09-29T18:58:49.974Z,100.00
2018-09-29T19:01:18.422Z,100.00
2018-09-29T19:03:46.784Z,100.00
2018-09-29T19:06:15.190Z,100.00
2018-09-29T19:08:44.605Z,100.00
2018-09-29T19:11:14.913Z,100.00
2018-09-29T19:13:44.015Z,100.00
2018-09-29T19:16:12.416Z,100.00
2018-09-29T19:18:41.668Z,100.00
2018-09-29T19:21:10.010Z,100.00
2018-09-29T19:23:39.482Z,100.00
2018-09-29T19:26:09.632Z,100.00
2018-09-29T19:28:38.746Z,100.00
2018-09-29T19:31:08.694Z,100.00
2018-09-29T19:33:37.755Z,100.00
2018-09-29T19:36:07.954Z,100.00
2018-09-29T19:38:37.750Z,100.00
2018-09-29T19:41:06.089Z,100.00
2018-09-29T19:43:34.480Z,100.00
2018-09-29T19:46:02.829Z,100.00
2018-09-29T19:48:32.207Z,100.00
2018-09-29T19:51:01.550Z,100.00
2018-09-29T19:53:31.817Z,100.00
2018-09-29T19:56:00.845Z,100.00
2018-09-29T19:58:29.777Z,100.00
2018-09-29T20:00:58.209Z,100.00
2018-09-29T20:03:26.573Z,100.00
2018-09-29T20:05:55.010Z,100.00
2018-09-29T20:08:25.767Z,100.00
2018-09-29T20:10:55.245Z,100.00
2018-09-29T20:13:23.662Z,100.00
2018-09-29T20:15:52.019Z,100.00
2018-09-29T20:18:20.417Z,100.00
2018-09-29T20:20:48.754Z,100.00
2018-09-29T20:23:17.094Z,100.00
2018-09-29T20:25:45.450Z,100.00
2018-09-29T20:28:13.794Z,100.00
2018-09-29T20:30:43.088Z,100.00
2018-09-29T20:33:11.446Z,100.00
2018-09-29T20:35:39.797Z,100.00
2018-09-29T20:38:09.145Z,100.00
2018-09-29T20:40:38.174Z,100.00
2018-09-29T20:43:07.937Z,100.00
2018-09-29T20:45:36.816Z,100.00
2018-09-29T20:48:05.904Z,100.00
2018-09-29T20:50:34.229Z,100.00
2018-09-29T20:53:03.649Z,100.00
2018-09-29T20:55:32.054Z,100.00
2018-09-29T20:58:01.950Z,100.00
2018-09-29T21:00:32.535Z,100.00
2018-09-29T21:03:01.842Z,100.00
2018-09-29T21:05:32.205Z,100.00
2018-09-29T21:08:01.933Z,100.00
2018-09-29T21:10:31.967Z,100.00
2018-09-29T21:13:01.259Z,100.00
2018-09-29T21:15:30.465Z,100.00
2018-09-29T21:17:58.873Z,100.00
2018-09-29T21:20:27.253Z,100.00
2018-09-29T21:22:56.613Z,100.00
2018-09-29T21:25:24.993Z,100.00
2018-09-29T21:27:54.368Z,100.00
2018-09-29T21:30:22.697Z,100.00
2018-09-29T21:32:52.059Z,100.00
2018-09-29T21:35:21.291Z,100.00
2018-09-29T21:37:49.629Z,100.00
2018-09-29T21:40:18.269Z,100.00
2018-09-29T21:42:46.605Z,100.00
2018-09-29T21:45:15.993Z,100.00
2018-09-29T21:47:45.213Z,100.00
2018-09-29T21:50:14.452Z,100.00
2018-09-29T21:52:43.685Z,100.00
2018-09-29T21:55:12.097Z,100.00
2018-09-29T21:57:40.492Z,100.00
2018-09-29T22:00:08.873Z,100.00
2018-09-29T22:02:38.232Z,100.00
2018-09-29T22:05:07.506Z,100.00
2018-09-29T22:07:36.472Z,100.00
2018-09-29T22:10:05.350Z,100.00
2018-09-29T22:12:33.754Z,100.00
2018-09-29T22:15:02.102Z,100.00
2018-09-29T22:17:30.940Z,100.00
2018-09-29T22:19:59.934Z,100.00
2018-09-29T22:22:28.318Z,100.00
2018-09-29T22:24:56.689Z,100.00
2018-09-29T22:27:25.013Z,100.00
2018-09-29T22:29:53.410Z,100.00
2018-09-29T22:32:22.813Z,100.00
2018-09-29T22:34:51.165Z,100.00
2018-09-29T22:37:19.539Z,100.00
2018-09-29T22:39:47.890Z,100.00
2018-09-29T22:42:17.095Z,100.00
2018-09-29T22:44:45.493Z,100.00
2018-09-29T22:47:13.846Z,100.00
2018-09-29T22:49:42.178Z,100.00
2018-09-29T22:52:11.422Z,100.00
2018-09-29T22:54:40.729Z,100.00
2018-09-29T22:57:10.078Z,100.00
2018-09-29T22:59:38.457Z,100.00
2018-09-29T23:02:08.096Z,100.00
2018-09-29T23:04:36.994Z,100.00
2018-09-29T23:07:06.049Z,100.00
2018-09-29T23:09:34.509Z,100.00
2018-09-29T23:12:02.845Z,100.00
2018-09-29T23:14:31.894Z,100.00
2018-09-29T23:17:02.363Z,100.00
2018-09-29T23:19:31.945Z,100.00
2018-09-29T23:22:02.149Z,100.00
2018-09-29T23:24:32.881Z,100.00
2018-09-29T23:27:02.140Z,100.00
2018-09-29T23:29:32.900Z,100.00
2018-09-29T23:32:03.322Z,100.00
2018-09-29T23:34:31.709Z,100.00
2018-09-29T23:37:02.027Z,100.00
2018-09-29T23:39:32.715Z,100.00
2018-09-29T23:42:02.513Z,100.00
2018-09-29T23:44:31.861Z,100.00
2018-09-29T23:47:01.989Z,100.00
2018-09-29T23:49:31.905Z,100.00
2018-09-29T23:52:01.125Z,100.00
2018-09-29T23:54:29.984Z,100.00
2018-09-29T23:56:59.878Z,100.00
2018-09-29T23:59:28.900Z,100.00
